Time;durP1;ratioP1;P1;durP2;ratioP2;P2;SDS_P1;SDS_P2;PMS_P1;PMS_P2;Temp;Humidity;BMP_temperature;BMP_pressure;BME280_temperature;BME280_humidity;BME280_pressure;Samples;Min_cycle;Max_cycle;Signal;HPM_P1;HPM_P2
2022/06/21 00:01:58;;;;;;;226.40;214.40;;;;;;;16.04;79.27;96666.50;5072856;28;20193;-67
2022/06/21 00:04:23;;;;;;;189.03;179.23;;;;;;;15.92;78.65;96665.94;5072671;28;20209;-68
2022/06/21 00:06:49;;;;;;;137.97;130.53;;;;;;;16.02;77.83;96672.03;5072906;28;20189;-67
2022/06/21 00:09:15;;;;;;;171.50;162.50;;;;;;;16.11;77.91;96669.66;5072469;28;20208;-67
2022/06/21 00:11:41;;;;;;;234.57;222.40;;;;;;;16.35;76.91;96669.91;5072823;28;20679;-67
2022/06/21 00:14:06;;;;;;;237.93;225.37;;;;;;;16.36;77.21;96667.03;5072637;28;20190;-67
2022/06/21 00:16:32;;;;;;;186.70;176.80;;;;;;;16.13;77.71;96667.53;5072730;28;20633;-66
2022/06/21 00:18:58;;;;;;;172.40;163.43;;;;;;;15.86;78.45;96667.00;5072373;28;20231;-66
2022/06/21 00:21:32;;;;;;;188.80;178.73;;;;;;;15.71;78.40;96667.78;5073134;28;20289;-66
2022/06/21 00:23:57;;;;;;;203.97;193.17;;;;;;;15.68;77.69;96670.94;5072619;28;20169;-66
2022/06/21 00:26:26;;;;;;;185.53;175.70;;;;;;;15.43;78.06;96674.28;5072468;28;20192;-66
2022/06/21 00:28:52;;;;;;;175.37;166.17;;;;;;;15.53;77.06;96662.97;5070817;28;20209;-66
2022/06/21 00:31:25;;;;;;;184.67;175.10;;;;;;;15.55;76.96;96672.22;5072678;28;20650;-66
2022/06/21 00:33:51;;;;;;;130.27;123.60;;;;;;;15.62;78.02;96674.63;5072743;28;20189;-66
2022/06/21 00:36:29;;;;;;;83.33;78.87;;;;;;;15.40;79.00;96672.16;5072456;28;20212;-66
2022/06/21 00:38:57;;;;;;;96.13;91.03;;;;;;;15.51;73.60;96672.97;5058491;28;20259;-66
2022/06/21 00:41:48;;;;;;;88.60;83.77;;;;;;;15.59;74.50;96673.31;5072644;28;20188;-66
2022/06/21 00:44:20;;;;;;;124.43;117.80;;;;;;;15.56;74.70;96673.81;5072271;28;20178;-66
2022/06/21 00:46:54;;;;;;;111.30;105.37;;;;;;;15.56;74.09;96671.16;5039101;28;20177;-66
2022/06/21 00:49:24;;;;;;;77.23;73.03;;;;;;;15.46;73.22;96678.25;5072356;28;20574;-66
2022/06/21 00:51:57;;;;;;;72.73;68.77;;;;;;;15.55;73.53;96666.16;5065687;28;20189;-66
2022/06/21 00:54:35;;;;;;;69.70;65.97;;;;;;;15.60;72.17;96664.31;5072080;28;20170;-66
2022/06/21 00:57:10;;;;;;;69.40;65.73;;;;;;;15.60;72.21;96660.88;5071812;28;20605;-66
2022/06/21 00:59:37;;;;;;;64.30;61.00;;;;;;;15.64;71.58;96660.09;5062869;28;20187;-66
2022/06/21 01:02:14;;;;;;;61.57;58.27;;;;;;;15.44;72.71;96656.56;5072133;28;20303;-66
2022/06/21 01:04:45;;;;;;;60.23;56.93;;;;;;;15.30;73.58;96659.72;5071584;28;20696;-66
2022/06/21 01:07:12;;;;;;;61.50;58.30;;;;;;;15.28;73.58;96663.66;5072001;28;20587;-66
2022/06/21 01:09:52;;;;;;;58.70;55.60;;;;;;;15.46;72.73;96660.53;5072266;28;20284;-66
2022/06/21 01:12:23;;;;;;;62.77;59.43;;;;;;;15.34;73.16;96646.78;5072457;28;20173;-66
2022/06/21 01:15:05;;;;;;;58.77;55.67;;;;;;;15.33;72.78;96645.19;5072122;28;20169;-66
2022/06/21 01:17:31;;;;;;;51.90;48.90;;;;;;;15.36;71.67;96647.31;5072261;28;20177;-66
2022/06/21 01:20:06;;;;;;;47.00;44.50;;;;;;;15.06;73.54;96647.19;5072158;28;20701;-67
2022/06/21 01:22:43;;;;;;;43.97;41.60;;;;;;;15.33;71.90;96645.19;5071973;28;20177;-67
2022/06/21 01:25:39;;;;;;;47.13;44.57;;;;;;;15.37;71.45;96648.91;5071645;28;20207;-66
2022/06/21 01:28:07;;;;;;;44.97;42.60;;;;;;;15.37;71.67;96641.00;5070438;28;20196;-66
2022/06/21 01:30:33;;;;;;;69.37;65.53;;;;;;;15.51;69.86;96639.44;5071521;28;20185;-66
2022/06/21 01:32:59;;;;;;;147.17;139.37;;;;;;;15.43;69.57;96639.94;5071752;28;20173;-66
2022/06/21 01:35:52;;;;;;;226.43;214.43;;;;;;;15.32;69.14;96633.81;5071921;28;20508;-66
2022/06/21 01:38:25;;;;;;;212.57;201.50;;;;;;;15.37;69.16;96622.50;5068469;28;20233;-66
2022/06/21 01:40:56;;;;;;;235.43;222.90;;;;;;;15.27;69.16;96617.97;5071237;28;20177;-66
2022/06/21 01:43:27;;;;;;;92.77;87.73;;;;;;;15.14;69.88;96601.84;5052862;28;20295;-66
2022/06/21 01:46:00;;;;;;;125.50;118.93;;;;;;;15.10;69.95;96604.19;5072109;28;20170;-66
2022/06/21 01:48:40;;;;;;;78.27;74.07;;;;;;;15.00;70.31;96596.22;5070712;28;20537;-66
2022/06/21 01:51:08;;;;;;;46.20;43.70;;;;;;;14.86;71.22;96585.38;5058496;28;20227;-66
2022/06/21 01:53:35;;;;;;;41.20;38.87;;;;;;;14.72;71.90;96578.97;5075373;28;20182;-66
2022/06/21 01:56:06;;;;;;;29.40;27.60;;;;;;;14.77;72.67;96586.91;5075224;28;20173;-66
2022/06/21 01:58:36;;;;;;;40.57;38.40;;;;;;;14.76;74.40;96568.72;5075371;28;20173;-66
2022/06/21 02:01:08;;;;;;;87.93;82.73;;;;;;;14.70;75.46;96561.81;5075253;28;20181;-66
2022/06/21 02:03:38;;;;;;;130.27;123.27;;;;;;;14.48;76.97;96557.53;5071479;28;20181;-67
2022/06/21 02:06:11;;;;;;;120.87;114.40;;;;;;;14.53;76.46;96569.94;5074847;28;20181;-66
2022/06/21 02:08:47;;;;;;;80.63;76.43;;;;;;;14.57;74.95;96571.00;5074998;28;20208;-66
2022/06/21 02:11:25;;;;;;;81.77;77.57;;;;;;;14.55;72.00;96573.09;5074951;28;20173;-66
2022/06/21 02:16:46;;;;;;;172.33;163.30;;;;;;;14.41;69.14;96577.25;5074877;28;20180;-66
2022/06/21 02:20:05;;;;;;;430.03;405.37;;;;;;;14.43;66.96;96580.44;5074785;28;20272;-66
2022/06/21 02:22:32;;;;;;;311.03;293.53;;;;;;;14.33;67.67;96573.22;4973498;28;20209;-65
2022/06/21 02:24:58;;;;;;;305.53;288.77;;;;;;;14.23;68.48;96565.25;4973376;28;20225;-66
2022/06/21 02:27:31;;;;;;;280.87;265.40;;;;;;;14.19;68.44;96566.81;5024024;28;20255;-65
2022/06/21 02:29:59;;;;;;;263.07;249.13;;;;;;;14.28;67.45;96567.91;5073730;28;20551;-66
2022/06/21 02:32:31;;;;;;;237.53;225.23;;;;;;;14.20;67.80;96567.59;5074880;28;20192;-65
2022/06/21 02:35:13;;;;;;;214.23;203.13;;;;;;;14.47;66.90;96569.13;5058952;28;20162;-66
2022/06/21 02:37:39;;;;;;;186.83;177.13;;;;;;;14.73;65.85;96569.22;5074440;28;20551;-66
2022/06/21 02:40:07;;;;;;;170.43;161.83;;;;;;;14.79;65.77;96568.97;5073849;28;20240;-66
2022/06/21 02:42:38;;;;;;;133.33;126.60;;;;;;;14.69;64.96;96565.50;5074358;28;20306;-66
2022/06/21 02:45:20;;;;;;;111.30;105.43;;;;;;;14.67;64.78;96572.88;5074367;28;20196;-66
2022/06/21 02:47:49;;;;;;;97.43;91.93;;;;;;;14.73;64.07;96569.22;5073777;28;20396;-66
2022/06/21 02:51:01;;;;;;;90.33;85.67;;;;;;;14.63;63.66;96569.19;5070624;28;20529;-66
2022/06/21 02:53:32;;;;;;;94.77;89.67;;;;;;;14.76;64.56;96569.50;5029180;28;20203;-66
2022/06/21 02:55:57;;;;;;;92.87;87.77;;;;;;;14.68;64.96;96577.09;5074024;28;20602;-66
2022/06/21 02:58:29;;;;;;;85.57;80.80;;;;;;;14.61;64.90;96574.69;5073931;28;20280;-66
2022/06/21 03:00:55;;;;;;;93.60;88.63;;;;;;;14.82;64.74;96581.66;5056047;28;20177;-66
2022/06/21 03:03:25;;;;;;;86.10;81.47;;;;;;;14.85;62.74;96567.94;5056328;28;20185;-66
2022/06/21 03:05:57;;;;;;;102.80;97.27;;;;;;;14.70;65.43;96565.25;5073651;28;20287;-65
2022/06/21 03:08:24;;;;;;;89.37;84.67;;;;;;;14.66;66.02;96569.44;5073913;28;20223;-66
2022/06/21 03:10:51;;;;;;;86.20;81.60;;;;;;;14.81;64.47;96558.97;5073780;28;20181;-66
2022/06/21 03:13:21;;;;;;;94.13;89.10;;;;;;;14.85;64.67;96557.41;5073830;28;20196;-66
2022/06/21 03:15:52;;;;;;;95.00;90.00;;;;;;;14.79;63.70;96553.16;5073093;28;20185;-66
2022/06/21 03:18:23;;;;;;;87.00;82.43;;;;;;;14.86;63.19;96552.91;5073849;28;20197;-65
2022/06/21 03:20:49;;;;;;;104.27;98.87;;;;;;;14.68;64.10;96548.09;5073767;28;20253;-65
2022/06/21 03:23:15;;;;;;;124.03;117.43;;;;;;;14.77;63.73;96551.81;5073319;28;20526;-66
2022/06/21 03:25:48;;;;;;;130.03;123.13;;;;;;;14.69;63.94;96553.13;5073476;28;20181;-65
2022/06/21 03:28:24;;;;;;;139.33;131.77;;;;;;;14.76;63.73;96547.59;5070853;28;20239;-65
2022/06/21 03:30:59;;;;;;;156.00;147.77;;;;;;;14.88;63.02;96546.31;5073694;28;20185;-66
2022/06/21 03:33:24;;;;;;;126.17;119.47;;;;;;;14.52;63.09;96549.88;5073653;28;20181;-65
2022/06/21 03:35:50;;;;;;;98.47;93.17;;;;;;;14.45;63.30;96542.19;5073179;28;20508;-65
2022/06/21 03:38:15;;;;;;;116.77;110.67;;;;;;;14.49;62.26;96537.19;5072774;28;20228;-65
2022/06/21 03:44:00;;;;;;;79.47;75.20;;;;;;;14.41;61.76;96529.78;5073571;28;20223;-65
2022/06/21 03:46:34;;;;;;;83.60;79.20;;;;;;;14.55;61.55;96536.16;4991737;28;20206;-66
2022/06/21 03:49:07;;;;;;;95.87;90.77;;;;;;;14.67;61.11;96544.66;5060327;28;20240;-66
2022/06/21 03:51:38;;;;;;;105.07;99.63;;;;;;;15.22;59.42;96537.94;5066661;28;20181;-66
2022/06/21 03:54:10;;;;;;;201.43;191.07;;;;;;;15.08;60.22;96540.31;5072775;28;20177;-66
2022/06/21 03:56:46;;;;;;;217.73;206.50;;;;;;;14.98;60.50;96532.38;5073126;28;20181;-66
2022/06/21 03:59:38;;;;;;;208.93;197.83;;;;;;;15.56;59.29;96538.28;5073211;28;20196;-66
2022/06/21 04:02:37;;;;;;;189.57;179.43;;;;;;;15.15;60.10;96532.16;5071829;28;20598;-66
2022/06/21 04:05:35;;;;;;;220.43;208.90;;;;;;;14.85;61.41;96532.84;5057317;28;20193;-66
2022/06/21 04:08:13;;;;;;;218.07;206.43;;;;;;;15.00;61.42;96535.53;5072619;28;20214;-66
2022/06/21 04:10:47;;;;;;;212.97;201.63;;;;;;;14.97;61.35;96522.88;5039600;28;20268;-66
2022/06/21 04:13:51;;;;;;;193.57;183.23;;;;;;;15.28;60.95;96516.56;5071905;28;20641;-66
2022/06/21 04:16:52;;;;;;;185.53;175.63;;;;;;;15.50;61.27;96523.44;5067816;28;20212;-66
2022/06/21 04:19:25;;;;;;;170.13;161.03;;;;;;;15.33;60.96;96518.41;5054594;28;20205;-65
2022/06/21 04:22:06;;;;;;;179.17;169.63;;;;;;;15.54;61.07;96529.84;5073038;28;20719;-65
2022/06/21 04:24:47;;;;;;;145.10;137.20;;;;;;;16.57;58.32;96523.03;5072592;28;20198;-66
2022/06/21 04:27:24;;;;;;;85.90;81.30;;;;;;;17.12;57.08;96526.50;5070416;28;20579;-66
2022/06/21 04:30:01;;;;;;;48.33;45.60;;;;;;;16.74;57.56;96528.03;5072496;28;20181;-66
2022/06/21 04:32:32;;;;;;;42.70;40.47;;;;;;;16.81;57.09;96525.88;5072324;28;20181;-66
2022/06/21 04:35:06;;;;;;;36.67;34.50;;;;;;;15.93;60.18;96524.81;5072612;28;20177;-66
2022/06/21 04:37:31;;;;;;;31.60;29.93;;;;;;;15.32;61.66;96527.41;5072471;28;20189;-66
2022/06/21 04:40:07;;;;;;;28.93;27.33;;;;;;;15.76;60.48;96530.38;5051001;28;20234;-66
2022/06/21 04:43:01;;;;;;;32.10;30.33;;;;;;;16.30;58.33;96533.19;5052517;28;20251;-67
2022/06/21 04:45:38;;;;;;;160.73;152.17;;;;;;;16.78;56.96;96529.06;5052497;28;20193;-66
2022/06/21 04:48:36;;;;;;;147.93;140.27;;;;;;;16.13;58.53;96527.41;5052233;28;20173;-66
2022/06/21 04:51:17;;;;;;;69.63;66.03;;;;;;;15.76;60.57;96517.94;5049861;28;20213;-67
2022/06/21 04:54:10;;;;;;;35.33;33.20;;;;;;;15.61;60.11;96517.94;5052376;28;20442;-66
2022/06/21 04:56:39;;;;;;;33.37;31.47;;;;;;;15.90;60.18;96510.25;5051990;28;20260;-66
2022/06/21 04:59:15;;;;;;;40.23;37.93;;;;;;;16.22;58.62;96518.66;5051815;28;20741;-66
2022/06/21 05:01:41;;;;;;;35.07;33.17;;;;;;;16.90;57.50;96523.44;5052278;28;20174;-66
2022/06/21 05:04:37;;;;;;;66.97;63.37;;;;;;;17.29;56.49;96528.78;5052302;28;20635;-66
2022/06/21 05:07:09;;;;;;;151.87;143.93;;;;;;;17.39;56.40;96521.53;5034416;28;20255;-65
2022/06/21 05:09:35;;;;;;;232.43;219.70;;;;;;;17.41;56.05;96527.38;5051826;28;20234;-64
2022/06/21 05:12:11;;;;;;;129.73;122.73;;;;;;;17.28;56.86;96527.97;5051967;28;20638;-64
2022/06/21 05:14:41;;;;;;;209.37;198.13;;;;;;;17.55;56.36;96524.09;5051958;28;20215;-64
2022/06/21 05:17:14;;;;;;;300.73;283.67;;;;;;;17.86;55.62;96514.84;5051891;28;20603;-64
2022/06/21 05:19:43;;;;;;;367.60;346.07;;;;;;;17.26;57.02;96524.03;5051778;28;20701;-64
2022/06/21 05:22:29;;;;;;;390.53;367.23;;;;;;;17.08;57.51;96524.69;5052179;28;20320;-64
2022/06/21 05:24:58;;;;;;;430.27;405.03;;;;;;;17.24;56.84;96520.88;5035862;28;20184;-64
2022/06/21 05:27:33;;;;;;;498.40;468.33;;;;;;;17.97;55.19;96529.59;5052722;28;20654;-64
2022/06/21 05:30:15;;;;;;;246.60;232.73;;;;;;;17.97;54.84;96529.59;5054235;28;20602;-64
2022/06/21 05:32:48;;;;;;;212.20;200.30;;;;;;;17.60;55.79;96518.78;5055946;28;20182;-66
2022/06/21 05:35:22;;;;;;;176.65;166.90;;;;;;;18.03;55.12;96514.44;5055139;28;20542;-65
2022/06/21 05:38:01;;;;;;;171.87;162.77;;;;;;;18.23;53.48;96520.31;5053667;28;20185;-65
2022/06/21 05:40:54;;;;;;;165.18;156.63;;;;;;;17.48;55.06;96523.63;5075445;28;20201;-64
2022/06/21 05:43:27;;;;;;;147.75;140.32;;;;;;;17.32;54.45;96525.59;5075747;28;20213;-64
2022/06/21 05:45:59;;;;;;;204.50;194.33;;;;;;;18.02;51.96;96523.44;5075744;28;20193;-64
2022/06/21 05:48:27;;;;;;;159.00;151.07;;;;;;;17.91;51.19;96528.06;5074634;28;20185;-64
2022/06/21 05:50:52;;;;;;;145.65;138.35;;;;;;;18.43;50.76;96531.78;5073854;28;20658;-64
2022/06/21 05:53:32;;;;;;;139.40;132.27;;;;;;;18.09;51.23;96526.56;5075097;28;20269;-64
2022/06/21 05:56:03;;;;;;;123.88;117.72;;;;;;;17.78;52.50;96529.50;5075209;28;20189;-65
2022/06/21 05:58:32;;;;;;;151.05;143.27;;;;;;;19.00;50.28;96528.97;5075299;28;20254;-64
2022/06/21 06:01:12;;;;;;;164.50;156.30;;;;;;;18.52;51.45;96535.41;5074819;28;20277;-64
2022/06/21 06:03:47;;;;;;;188.75;179.55;;;;;;;19.16;49.76;96540.22;5074985;28;20183;-64
2022/06/21 06:06:16;;;;;;;151.18;143.02;;;;;;;18.57;50.51;96548.63;5075077;28;20234;-64
2022/06/21 06:08:48;;;;;;;162.63;154.35;;;;;;;18.69;50.59;96538.41;5074743;28;20193;-64
2022/06/21 06:11:20;;;;;;;141.45;134.35;;;;;;;18.68;51.26;96545.59;5074974;28;20184;-64
2022/06/21 06:13:48;;;;;;;129.55;122.95;;;;;;;18.57;51.11;96551.28;5074940;28;20186;-64
2022/06/21 06:16:34;;;;;;;140.00;132.80;;;;;;;18.55;51.42;96545.50;5074805;28;20188;-64
2022/06/21 06:19:08;;;;;;;136.10;129.20;;;;;;;18.68;51.41;96542.94;5074439;28;20276;-65
2022/06/21 06:21:43;;;;;;;139.73;132.60;;;;;;;18.74;51.27;96542.88;5074397;28;20169;-65
2022/06/21 06:24:24;;;;;;;165.55;157.25;;;;;;;18.76;51.78;96536.22;5075034;28;20188;-65
2022/06/21 06:26:56;;;;;;;150.50;142.93;;;;;;;19.23;50.25;96537.97;5071390;28;20585;-65
2022/06/21 06:29:22;;;;;;;152.48;144.93;;;;;;;18.82;50.96;96542.25;5074915;28;20299;-65
2022/06/21 06:31:57;;;;;;;118.70;112.47;;;;;;;19.20;50.17;96545.72;5074836;28;20762;-65
2022/06/21 06:34:30;;;;;;;103.50;98.05;;;;;;;19.45;49.04;96546.19;5074553;28;20641;-65
2022/06/21 06:37:02;;;;;;;112.93;107.03;;;;;;;19.82;48.67;96552.53;5056044;28;20284;-65
2022/06/21 06:39:31;;;;;;;101.97;96.47;;;;;;;18.15;52.75;96541.38;5074408;28;20302;-65
2022/06/21 06:42:01;;;;;;;105.18;99.78;;;;;;;18.24;51.92;96544.97;5074426;28;20272;-65
2022/06/21 06:44:31;;;;;;;122.03;115.72;;;;;;;18.15;52.50;96539.50;5074333;28;20223;-65
2022/06/21 06:47:01;;;;;;;90.07;85.30;;;;;;;18.47;51.51;96540.75;5074484;28;20178;-66
2022/06/21 06:49:41;;;;;;;136.07;128.27;;;;;;;18.33;51.94;96535.34;5073166;28;20239;-66
2022/06/21 06:52:17;;;;;;;92.57;87.68;;;;;;;20.75;47.58;96527.44;5073159;28;20165;-69
2022/06/21 06:54:51;;;;;;;306.40;290.05;;;;;;;19.88;48.58;96532.75;5074367;28;20201;-68
2022/06/21 06:57:30;;;;;;;327.60;310.00;;;;;;;20.81;46.20;96530.78;5073539;28;20185;-68
2022/06/21 06:59:56;;;;;;;444.65;420.17;;;;;;;21.32;45.42;96527.84;5074048;28;20684;-68
2022/06/21 07:02:30;;;;;;;635.10;600.80;;;;;;;20.59;45.76;96526.16;5073795;28;20181;-68
2022/06/21 07:05:11;;;;;;;674.40;636.58;;;;;;;21.10;45.11;96528.56;5072209;28;20185;-68
2022/06/21 07:07:44;;;;;;;766.08;719.97;;;;;;;21.40;44.20;96530.56;5066178;28;20185;-69
2022/06/21 07:10:16;;;;;;;827.00;775.28;;;;;;;20.62;46.38;96545.00;5059252;28;20174;-69
2022/06/21 07:12:42;;;;;;;830.17;778.30;;;;;;;21.87;43.96;96537.19;5072607;28;20181;-68
2022/06/21 07:15:09;;;;;;;698.53;656.95;;;;;;;22.62;42.03;96546.25;5072615;28;20192;-68
2022/06/21 07:17:51;;;;;;;440.55;414.80;;;;;;;22.72;41.70;96544.13;5072351;28;20190;-68
2022/06/21 07:20:22;;;;;;;357.73;337.67;;;;;;;21.00;44.31;96550.91;5073377;28;20662;-69
2022/06/21 07:22:49;;;;;;;297.38;281.55;;;;;;;21.94;43.08;96561.63;5072694;28;20256;-69
2022/06/21 07:25:40;;;;;;;394.58;372.75;;;;;;;22.17;42.53;96570.41;5071801;28;20185;-68
2022/06/21 07:28:12;;;;;;;600.65;565.60;;;;;;;21.31;43.96;96571.59;5068131;28;20264;-68
2022/06/21 07:30:42;;;;;;;564.47;533.72;;;;;;;21.93;42.83;96565.34;5055305;28;20227;-68
2022/06/21 07:33:30;;;;;;;507.48;480.63;;;;;;;21.44;43.50;96563.56;5072944;28;20177;-69
2022/06/21 07:36:18;;;;;;;507.67;481.00;;;;;;;23.04;41.34;96561.63;5053371;28;20260;-69
2022/06/21 07:38:49;;;;;;;338.13;321.02;;;;;;;22.40;42.12;96568.47;5063649;28;20709;-69
2022/06/21 07:41:23;;;;;;;300.42;285.33;;;;;;;21.93;42.39;96564.56;5073307;28;20178;-68
2022/06/21 07:43:53;;;;;;;281.73;267.77;;;;;;;21.91;42.91;96564.84;5073257;28;20660;-69
2022/06/21 07:46:42;;;;;;;277.92;264.08;;;;;;;21.21;43.75;96559.28;5072905;28;20540;-69
2022/06/21 07:49:26;;;;;;;256.48;243.68;;;;;;;21.91;43.12;96556.06;5071084;28;20246;-69
2022/06/21 07:52:01;;;;;;;280.48;266.17;;;;;;;21.50;43.53;96559.69;5055144;28;20521;-68
2022/06/21 07:54:34;;;;;;;280.85;266.45;;;;;;;22.00;43.04;96550.81;5073214;28;20169;-68
2022/06/21 07:57:07;;;;;;;212.13;201.65;;;;;;;22.91;41.12;96535.03;5072034;28;20295;-69
2022/06/21 07:59:38;;;;;;;262.15;248.43;;;;;;;22.58;41.65;96526.56;5070981;28;20204;-69
2022/06/21 08:07:49;;;;;;;140.32;133.00;;;;;;;23.18;41.08;96511.47;5062273;28;20196;-68
2022/06/21 08:10:26;;;;;;;110.82;105.05;;;;;;;23.66;40.29;96509.78;5072879;28;20185;-69
2022/06/21 08:12:54;;;;;;;247.65;235.60;;;;;;;23.00;41.17;96503.75;5054967;28;20630;-70
2022/06/21 08:15:25;;;;;;;281.08;267.55;;;;;;;22.61;41.21;96504.59;5072735;28;20189;-68
2022/06/21 08:18:01;;;;;;;82.70;78.43;;;;;;;23.14;41.39;96494.50;5071531;28;20637;-69
2022/06/21 08:20:32;;;;;;;130.10;123.35;;;;;;;23.17;41.24;96495.75;5072247;28;20169;-69
2022/06/21 08:23:08;;;;;;;153.82;146.07;;;;;;;23.01;41.56;96495.44;5072322;28;20177;-69
2022/06/21 08:25:44;;;;;;;170.27;161.60;;;;;;;22.59;43.04;96498.75;5070367;28;20189;-69
2022/06/21 08:28:19;;;;;;;141.45;134.25;;;;;;;21.48;45.31;96499.75;5072110;28;20618;-69
2022/06/21 08:30:53;;;;;;;243.18;230.13;;;;;;;22.18;43.55;96505.19;5060995;28;20169;-69
2022/06/21 08:34:04;;;;;;;313.13;295.88;;;;;;;22.42;42.97;96509.38;5054037;28;20645;-70
2022/06/21 08:36:35;;;;;;;345.75;326.83;;;;;;;21.63;44.86;96496.69;5006839;28;20209;-69
2022/06/21 08:39:21;;;;;;;427.90;404.42;;;;;;;22.39;43.44;96486.78;5059386;28;20316;-69
2022/06/21 08:42:15;;;;;;;541.80;512.15;;;;;;;22.61;43.00;96483.22;5072324;28;20709;-68
2022/06/21 08:44:43;;;;;;;605.40;572.53;;;;;;;22.66;43.50;96483.84;4983232;28;20239;-69
2022/06/21 08:47:29;;;;;;;587.58;555.40;;;;;;;22.78;42.70;96497.44;5072150;28;20165;-69
2022/06/21 08:50:32;;;;;;;567.83;537.05;;;;;;;22.40;43.57;96509.72;5057947;28;20201;-69
2022/06/21 08:53:36;;;;;;;487.25;460.25;;;;;;;21.76;44.57;96533.22;5052075;28;20170;-69
2022/06/21 08:56:17;;;;;;;524.55;495.67;;;;;;;21.41;45.12;96507.38;5052071;28;20592;-69
2022/06/21 08:59:02;;;;;;;567.42;535.85;;;;;;;21.11;45.93;96487.50;5067613;28;20339;-68
2022/06/21 09:01:49;;;;;;;667.53;629.67;;;;;;;21.46;45.00;96492.03;5056620;28;20166;-65
2022/06/21 09:04:22;;;;;;;46.00;43.42;;;;;;;22.09;47.27;96515.06;5067793;28;20182;-66
2022/06/21 09:07:02;;;;;;;417.25;395.67;;;;;;;21.43;51.01;96478.53;5075771;28;20181;-66
2022/06/21 09:10:05;;;;;;;585.28;552.95;;;;;;;20.68;52.76;96474.56;5076402;28;20463;-65
2022/06/21 09:13:07;;;;;;;637.13;600.40;;;;;;;19.99;53.63;96496.91;5075604;28;20203;-66
2022/06/21 09:16:14;;;;;;;637.47;599.45;;;;;;;20.50;52.56;96493.34;5062508;28;20638;-65
2022/06/21 09:19:06;;;;;;;789.72;738.58;;;;;;;20.52;52.28;96481.28;5071740;28;20642;-66
2022/06/21 09:21:53;;;;;;;697.88;654.92;;;;;;;19.97;51.84;96485.75;5075542;28;20634;-66
2022/06/21 09:24:50;;;;;;;700.47;659.85;;;;;;;20.19;50.74;96499.19;5074159;28;20233;-65
2022/06/21 09:27:24;;;;;;;635.60;600.05;;;;;;;19.69;51.26;96497.44;5068272;28;20207;-65
2022/06/21 09:30:19;;;;;;;704.67;662.90;;;;;;;19.91;51.72;96498.38;5075377;28;20173;-66
2022/06/21 09:33:09;;;;;;;733.60;688.65;;;;;;;20.68;50.12;96493.19;5057608;28;20318;-65
2022/06/21 09:35:55;;;;;;;695.58;654.90;;;;;;;20.95;49.04;96499.59;5072814;28;20181;-67
2022/06/21 09:38:25;;;;;;;674.13;634.63;;;;;;;20.81;50.02;96507.59;5054057;28;20264;-66
2022/06/21 09:41:12;;;;;;;696.95;657.35;;;;;;;22.00;47.44;96502.78;5055473;28;20232;-65
2022/06/21 09:43:51;;;;;;;454.60;429.75;;;;;;;22.78;45.40;96505.47;5055461;28;20202;-66
2022/06/21 09:46:16;;;;;;;225.43;212.88;;;;;;;21.77;47.14;96505.44;5055711;28;20244;-65
2022/06/21 09:48:57;;;;;;;195.75;184.70;;;;;;;21.59;47.25;96493.06;5049056;28;20221;-66
2022/06/21 09:51:44;;;;;;;217.15;205.68;;;;;;;21.85;46.81;96501.22;5035937;28;20304;-65
2022/06/21 09:54:31;;;;;;;173.13;163.45;;;;;;;21.00;48.96;96497.59;5035318;28;20167;-65
2022/06/21 09:57:23;;;;;;;199.02;188.07;;;;;;;21.30;49.36;96484.69;5035097;28;20908;-65
2022/06/21 09:59:54;;;;;;;216.45;204.18;;;;;;;21.26;48.85;96478.41;5052007;28;20226;-64
2022/06/21 10:02:39;;;;;;;262.50;247.60;;;;;;;21.71;47.52;96474.63;5055475;28;20174;-66
2022/06/21 10:05:42;;;;;;;366.83;347.23;;;;;;;22.19;47.35;96481.97;5054850;28;20235;-65
2022/06/21 10:08:31;;;;;;;365.52;345.67;;;;;;;22.56;46.82;96489.50;5055263;28;20280;-66
2022/06/21 10:11:18;;;;;;;250.98;236.50;;;;;;;22.13;46.85;96488.53;5042603;28;20666;-66
2022/06/21 10:13:46;;;;;;;209.07;197.02;;;;;;;22.53;46.11;96487.44;5053736;28;20189;-66
2022/06/21 10:16:39;;;;;;;191.30;180.63;;;;;;;21.29;48.67;96475.91;5054543;28;20666;-66
2022/06/21 10:19:14;;;;;;;266.40;251.30;;;;;;;22.49;47.80;96473.13;5054562;28;20202;-65
2022/06/21 10:21:57;;;;;;;227.68;214.20;;;;;;;22.23;47.40;96472.25;5054128;28;20219;-66
2022/06/21 10:24:44;;;;;;;259.55;244.15;;;;;;;22.16;48.43;96472.69;5049422;28;20273;-65
2022/06/21 10:27:32;;;;;;;291.27;274.23;;;;;;;23.03;46.36;96468.38;5044630;28;20268;-66
2022/06/21 10:30:10;;;;;;;244.98;230.52;;;;;;;22.30;48.50;96452.00;5054483;28;20194;-67
2022/06/21 10:32:50;;;;;;;365.92;344.75;;;;;;;22.07;49.56;96455.84;5054074;28;20177;-66
2022/06/21 10:35:37;;;;;;;378.10;355.83;;;;;;;22.51;48.30;96460.25;5054455;28;20189;-66
2022/06/21 10:38:12;;;;;;;577.63;545.03;;;;;;;22.91;47.88;96447.59;5058871;28;20582;-66
2022/06/21 10:40:58;;;;;;;544.90;514.20;;;;;;;22.84;48.08;96438.50;5075865;28;20254;-66
2022/06/21 10:43:41;;;;;;;538.05;507.25;;;;;;;22.07;50.14;96439.81;5070162;28;20173;-66
2022/06/21 10:46:14;;;;;;;627.05;591.90;;;;;;;22.62;48.65;96431.38;5073466;28;20174;-66
2022/06/21 10:48:58;;;;;;;608.40;574.70;;;;;;;22.57;49.01;96424.25;5065893;28;20198;-66
2022/06/21 10:51:36;;;;;;;533.25;504.05;;;;;;;22.47;49.45;96415.75;5072259;28;20181;-66
2022/06/21 10:54:23;;;;;;;654.20;615.35;;;;;;;22.77;49.98;96417.56;5073301;28;20187;-66
2022/06/21 10:57:17;;;;;;;589.03;554.95;;;;;;;23.15;48.61;96401.69;5056180;28;20165;-66
2022/06/21 11:03:07;;;;;;;696.47;654.55;;;;;;;22.70;50.57;96403.84;5073598;28;20260;-66
2022/06/21 11:05:36;;;;;;;623.42;585.92;;;;;;;22.65;50.83;96394.09;5073146;28;20701;-65
2022/06/21 11:08:26;;;;;;;682.20;641.00;;;;;;;22.61;50.95;96400.38;5073903;28;20308;-65
2022/06/21 11:11:10;;;;;;;621.65;584.80;;;;;;;22.53;50.35;96401.16;5073781;28;20736;-66
2022/06/21 11:14:17;;;;;;;791.03;739.55;;;;;;;23.00;50.86;96396.81;5073502;28;20177;-66
2022/06/21 11:17:20;;;;;;;739.85;691.67;;;;;;;23.44;50.05;96396.44;5050524;28;20205;-67
2022/06/21 11:20:11;;;;;;;745.22;696.50;;;;;;;23.90;49.28;96392.25;5073577;28;20259;-65
2022/06/21 11:22:49;;;;;;;727.95;680.95;;;;;;;24.14;48.54;96389.75;5073103;28;20287;-67
2022/06/21 11:25:31;;;;;;;685.65;643.03;;;;;;;23.12;51.51;96380.94;5071279;28;20193;-66
2022/06/21 11:28:39;;;;;;;662.42;622.05;;;;;;;22.71;52.57;96392.06;5073049;28;20232;-65
2022/06/21 11:31:31;;;;;;;693.67;650.20;;;;;;;22.96;52.32;96385.19;5059140;28;20231;-66
2022/06/21 11:34:18;;;;;;;740.13;692.70;;;;;;;23.21;52.38;96377.13;5063445;28;20181;-66
2022/06/21 11:37:06;;;;;;;717.40;671.63;;;;;;;24.28;50.06;96370.81;5073437;28;20177;-66
2022/06/21 11:39:49;;;;;;;656.90;617.33;;;;;;;24.58;48.83;96361.63;5072923;28;20224;-67
2022/06/21 11:42:50;;;;;;;640.63;603.53;;;;;;;24.72;49.85;96354.13;5072811;28;20221;-67
2022/06/21 11:45:42;;;;;;;612.40;578.17;;;;;;;24.36;50.00;96364.63;5040680;28;20225;-66
2022/06/21 11:48:10;;;;;;;470.83;445.27;;;;;;;23.46;52.15;96369.41;5070819;28;20205;-66
2022/06/21 11:50:52;;;;;;;481.15;455.13;;;;;;;23.98;50.61;96362.75;5072821;28;20591;-66
2022/06/21 11:53:28;;;;;;;504.85;477.63;;;;;;;24.11;51.27;96358.28;5071834;28;20256;-64
2022/06/21 11:56:03;;;;;;;379.40;358.55;;;;;;;23.86;51.01;96351.94;5056832;28;20176;-65
2022/06/21 11:58:56;;;;;;;431.58;408.40;;;;;;;24.81;49.63;96352.16;5055425;28;20228;-65
2022/06/21 12:01:36;;;;;;;423.92;401.25;;;;;;;24.80;50.20;96347.88;5071426;28;20181;-66
2022/06/21 12:04:14;;;;;;;337.38;319.20;;;;;;;25.05;49.37;96340.78;5071899;28;20173;-66
2022/06/21 12:06:59;;;;;;;270.77;255.95;;;;;;;25.24;48.91;96349.09;5071586;28;20654;-65